sensor_id;sensor_type;location;lat;lon;timestamp;pressure;altitude;pressure_sealevel;temperature;humidity
19236;BME280;9752;54.270;12.470;2024-03-25T00:02:19;100379.03;;;5.20;100.00
19236;BME280;9752;54.270;12.470;2024-03-25T00:07:22;100389.09;;;5.17;100.00
19236;BME280;9752;54.270;12.470;2024-03-25T00:12:24;100388.72;;;5.12;100.00
19236;BME280;9752;54.270;12.470;2024-03-25T00:17:25;100397.56;;;5.16;100.00
19236;BME280;9752;54.270;12.470;2024-03-25T00:22:28;100419.38;;;5.21;100.00
19236;BME280;9752;54.270;12.470;2024-03-25T00:27:30;100418.50;;;5.20;100.00
19236;BME280;9752;54.270;12.470;2024-03-25T00:32:31;100417.59;;;5.20;100.00
19236;BME280;9752;54.270;12.470;2024-03-25T00:37:34;100427.78;;;5.18;100.00
19236;BME280;9752;54.270;12.470;2024-03-25T00:42:36;100427.41;;;5.14;100.00
19236;BME280;9752;54.270;12.470;2024-03-25T00:47:37;100442.25;;;5.06;100.00
19236;BME280;9752;54.270;12.470;2024-03-25T00:52:40;100447.50;;;5.07;100.00
19236;BME280;9752;54.270;12.470;2024-03-25T00:57:42;100447.97;;;5.14;100.00
19236;BME280;9752;54.270;12.470;2024-03-25T01:02:44;100455.47;;;5.11;100.00
19236;BME280;9752;54.270;12.470;2024-03-25T01:07:47;100461.59;;;5.01;100.00
19236;BME280;9752;54.270;12.470;2024-03-25T01:12:49;100467.50;;;5.00;100.00
19236;BME280;9752;54.270;12.470;2024-03-25T01:17:51;100479.91;;;5.05;100.00
19236;BME280;9752;54.270;12.470;2024-03-25T01:22:54;100487.88;;;5.08;100.00
19236;BME280;9752;54.270;12.470;2024-03-25T01:27:55;100498.06;;;5.19;100.00
19236;BME280;9752;54.270;12.470;2024-03-25T01:32:57;100509.19;;;5.30;100.00
19236;BME280;9752;54.270;12.470;2024-03-25T01:38:00;100508.28;;;5.29;100.00
19236;BME280;9752;54.270;12.470;2024-03-25T01:43:03;100525.75;;;5.33;100.00
19236;BME280;9752;54.270;12.470;2024-03-25T01:48:07;100535.00;;;5.31;100.00
19236;BME280;9752;54.270;12.470;2024-03-25T01:53:12;100540.69;;;5.27;100.00
19236;BME280;9752;54.270;12.470;2024-03-25T01:58:15;100558.38;;;5.34;100.00
19236;BME280;9752;54.270;12.470;2024-03-25T02:03:17;100565.09;;;5.32;100.00
19236;BME280;9752;54.270;12.470;2024-03-25T02:08:21;100578.41;;;5.38;100.00
19236;BME280;9752;54.270;12.470;2024-03-25T02:13:23;100587.81;;;5.38;100.00
19236;BME280;9752;54.270;12.470;2024-03-25T02:18:24;100596.22;;;5.35;100.00
19236;BME280;9752;54.270;12.470;2024-03-25T02:23:28;100602.38;;;5.37;100.00
19236;BME280;9752;54.270;12.470;2024-03-25T02:28:31;100610.78;;;5.46;100.00
19236;BME280;9752;54.270;12.470;2024-03-25T02:33:32;100615.69;;;5.43;100.00
19236;BME280;9752;54.270;12.470;2024-03-25T02:38:34;100628.25;;;5.51;100.00
19236;BME280;9752;54.270;12.470;2024-03-25T02:43:37;100637.00;;;5.53;100.00
19236;BME280;9752;54.270;12.470;2024-03-25T02:48:39;100642.34;;;5.56;100.00
19236;BME280;9752;54.270;12.470;2024-03-25T02:53:40;100649.97;;;5.54;100.00
19236;BME280;9752;54.270;12.470;2024-03-25T02:58:43;100645.47;;;5.30;100.00
19236;BME280;9752;54.270;12.470;2024-03-25T03:03:45;100645.44;;;5.07;100.00
19236;BME280;9752;54.270;12.470;2024-03-25T03:08:46;100650.88;;;5.00;100.00
19236;BME280;9752;54.270;12.470;2024-03-25T03:13:49;100650.53;;;4.96;100.00
19236;BME280;9752;54.270;12.470;2024-03-25T03:18:51;100659.13;;;4.96;100.00
19236;BME280;9752;54.270;12.470;2024-03-25T03:23:53;100663.53;;;4.87;100.00
19236;BME280;9752;54.270;12.470;2024-03-25T03:28:56;100668.78;;;4.88;100.00
19236;BME280;9752;54.270;12.470;2024-03-25T03:33:57;100675.59;;;4.88;100.00
19236;BME280;9752;54.270;12.470;2024-03-25T03:38:59;100681.38;;;4.85;100.00
19236;BME280;9752;54.270;12.470;2024-03-25T03:44:02;100684.59;;;4.83;100.00
19236;BME280;9752;54.270;12.470;2024-03-25T03:49:04;100685.34;;;4.92;100.00
19236;BME280;9752;54.270;12.470;2024-03-25T03:54:05;100706.19;;;4.95;100.00
19236;BME280;9752;54.270;12.470;2024-03-25T03:59:08;100699.38;;;4.85;100.00
19236;BME280;9752;54.270;12.470;2024-03-25T04:04:11;100719.66;;;4.93;100.00
19236;BME280;9752;54.270;12.470;2024-03-25T04:09:12;100732.91;;;4.97;100.00
19236;BME280;9752;54.270;12.470;2024-03-25T04:14:15;100737.25;;;4.98;100.00
19236;BME280;9752;54.270;12.470;2024-03-25T04:19:17;100748.94;;;5.05;100.00
19236;BME280;9752;54.270;12.470;2024-03-25T04:24:19;100752.66;;;4.98;100.00
19236;BME280;9752;54.270;12.470;2024-03-25T04:29:22;100758.06;;;5.01;100.00
19236;BME280;9752;54.270;12.470;2024-03-25T04:34:23;100768.50;;;5.03;100.00
19236;BME280;9752;54.270;12.470;2024-03-25T04:39:25;100772.44;;;5.09;100.00
19236;BME280;9752;54.270;12.470;2024-03-25T04:44:27;100789.91;;;5.14;100.00
19236;BME280;9752;54.270;12.470;2024-03-25T04:49:28;100803.03;;;5.17;100.00
19236;BME280;9752;54.270;12.470;2024-03-25T04:54:28;100815.00;;;5.16;100.00
19236;BME280;9752;54.270;12.470;2024-03-25T04:59:30;100825.28;;;5.16;100.00
19236;BME280;9752;54.270;12.470;2024-03-25T05:04:31;100835.16;;;5.22;100.00
19236;BME280;9752;54.270;12.470;2024-03-25T05:09:31;100840.19;;;5.20;100.00
19236;BME280;9752;54.270;12.470;2024-03-25T05:14:33;100855.47;;;5.19;100.00
19236;BME280;9752;54.270;12.470;2024-03-25T05:19:34;100874.22;;;5.18;100.00
19236;BME280;9752;54.270;12.470;2024-03-25T05:24:35;100888.66;;;5.26;100.00
19236;BME280;9752;54.270;12.470;2024-03-25T05:29:37;100905.84;;;5.27;100.00
19236;BME280;9752;54.270;12.470;2024-03-25T05:34:38;100918.97;;;5.40;100.00
19236;BME280;9752;54.270;12.470;2024-03-25T05:39:38;100928.84;;;5.46;100.00
19236;BME280;9752;54.270;12.470;2024-03-25T05:44:40;100943.66;;;5.48;100.00
19236;BME280;9752;54.270;12.470;2024-03-25T05:49:41;100957.16;;;5.56;100.00
19236;BME280;9752;54.270;12.470;2024-03-25T05:54:42;100972.69;;;5.68;100.00
19236;BME280;9752;54.270;12.470;2024-03-25T05:59:44;100980.41;;;5.68;100.00
19236;BME280;9752;54.270;12.470;2024-03-25T06:04:44;100995.59;;;5.75;100.00
19236;BME280;9752;54.270;12.470;2024-03-25T06:09:45;101017.44;;;5.91;100.00
19236;BME280;9752;54.270;12.470;2024-03-25T06:14:47;101023.13;;;5.76;100.00
19236;BME280;9752;54.270;12.470;2024-03-25T06:19:48;101023.91;;;5.65;100.00
19236;BME280;9752;54.270;12.470;2024-03-25T06:24:49;101037.31;;;5.71;100.00
19236;BME280;9752;54.270;12.470;2024-03-25T06:29:51;101044.63;;;5.77;100.00
19236;BME280;9752;54.270;12.470;2024-03-25T06:34:52;101054.28;;;5.79;100.00
19236;BME280;9752;54.270;12.470;2024-03-25T06:39:52;101057.22;;;5.84;100.00
19236;BME280;9752;54.270;12.470;2024-03-25T06:44:54;101065.31;;;5.78;100.00
19236;BME280;9752;54.270;12.470;2024-03-25T06:49:57;101072.28;;;5.79;100.00
19236;BME280;9752;54.270;12.470;2024-03-25T06:54:58;101079.63;;;5.85;100.00
19236;BME280;9752;54.270;12.470;2024-03-25T07:00:00;101076.66;;;5.91;100.00
19236;BME280;9752;54.270;12.470;2024-03-25T07:05:01;101076.78;;;5.82;100.00
19236;BME280;9752;54.270;12.470;2024-03-25T07:10:02;101086.81;;;5.68;100.00
19236;BME280;9752;54.270;12.470;2024-03-25T07:15:05;101090.16;;;5.57;100.00
19236;BME280;9752;54.270;12.470;2024-03-25T07:20:07;101094.78;;;5.61;100.00
19236;BME280;9752;54.270;12.470;2024-03-25T07:25:08;101101.88;;;5.74;100.00
19236;BME280;9752;54.270;12.470;2024-03-25T07:30:11;101108.06;;;5.76;100.00
19236;BME280;9752;54.270;12.470;2024-03-25T07:35:12;101112.97;;;5.73;100.00
19236;BME280;9752;54.270;12.470;2024-03-25T07:40:12;101125.34;;;6.08;100.00
19236;BME280;9752;54.270;12.470;2024-03-25T07:45:15;101132.56;;;6.22;100.00
19236;BME280;9752;54.270;12.470;2024-03-25T07:50:16;101137.94;;;6.36;100.00
19236;BME280;9752;54.270;12.470;2024-03-25T07:55:16;101132.66;;;6.34;100.00
19236;BME280;9752;54.270;12.470;2024-03-25T08:00:18;101114.69;;;6.56;100.00
19236;BME280;9752;54.270;12.470;2024-03-25T08:05:19;101102.38;;;6.42;100.00
19236;BME280;9752;54.270;12.470;2024-03-25T08:10:20;101093.34;;;6.37;100.00
19236;BME280;9752;54.270;12.470;2024-03-25T08:15:22;101085.41;;;6.34;100.00
19236;BME280;9752;54.270;12.470;2024-03-25T08:20:22;101066.91;;;5.97;100.00
19236;BME280;9752;54.270;12.470;2024-03-25T08:25:23;101078.16;;;6.72;100.00
19236;BME280;9752;54.270;12.470;2024-03-25T08:30:25;101067.47;;;7.22;100.00
19236;BME280;9752;54.270;12.470;2024-03-25T08:35:25;101047.66;;;7.11;100.00
19236;BME280;9752;54.270;12.470;2024-03-25T08:40:26;101025.06;;;6.42;100.00
19236;BME280;9752;54.270;12.470;2024-03-25T08:45:28;101025.41;;;6.79;100.00
19236;BME280;9752;54.270;12.470;2024-03-25T08:50:29;101003.09;;;6.57;100.00
19236;BME280;9752;54.270;12.470;2024-03-25T08:55:29;100992.91;;;6.59;100.00
19236;BME280;9752;54.270;12.470;2024-03-25T09:00:31;100929.22;;;7.02;100.00
19236;BME280;9752;54.270;12.470;2024-03-25T09:05:32;100911.13;;;6.90;100.00
19236;BME280;9752;54.270;12.470;2024-03-25T09:10:33;100887.91;;;6.90;100.00
19236;BME280;9752;54.270;12.470;2024-03-25T09:16:08;100869.97;;;6.80;100.00
19236;BME280;9752;54.270;12.470;2024-03-25T09:21:08;100817.13;;;6.63;100.00
19236;BME280;9752;54.270;12.470;2024-03-25T09:26:09;100808.94;;;6.69;100.00
19236;BME280;9752;54.270;12.470;2024-03-25T09:31:12;100810.50;;;6.55;100.00
19236;BME280;9752;54.270;12.470;2024-03-25T09:36:12;100812.97;;;6.65;100.00
19236;BME280;9752;54.270;12.470;2024-03-25T09:41:13;100806.41;;;6.92;100.00
19236;BME280;9752;54.270;12.470;2024-03-25T09:46:15;100802.66;;;7.34;100.00
19236;BME280;9752;54.270;12.470;2024-03-25T09:51:16;100805.22;;;7.58;100.00
19236;BME280;9752;54.270;12.470;2024-03-25T09:56:17;100794.13;;;7.23;100.00
19236;BME280;9752;54.270;12.470;2024-03-25T10:01:19;100795.81;;;7.23;100.00
19236;BME280;9752;54.270;12.470;2024-03-25T10:06:20;100793.13;;;7.21;100.00
19236;BME280;9752;54.270;12.470;2024-03-25T10:11:20;100782.34;;;7.27;100.00
19236;BME280;9752;54.270;12.470;2024-03-25T10:16:22;100793.53;;;6.92;100.00
19236;BME280;9752;54.270;12.470;2024-03-25T10:21:23;100792.63;;;6.80;100.00
19236;BME280;9752;54.270;12.470;2024-03-25T10:26:27;100784.78;;;6.90;100.00
19236;BME280;9752;54.270;12.470;2024-03-25T10:31:29;100789.97;;;7.26;100.00
19236;BME280;9752;54.270;12.470;2024-03-25T10:36:32;100797.25;;;7.31;100.00
19236;BME280;9752;54.270;12.470;2024-03-25T10:41:34;100786.94;;;7.08;100.00
19236;BME280;9752;54.270;12.470;2024-03-25T10:46:37;100788.03;;;6.88;100.00
19236;BME280;9752;54.270;12.470;2024-03-25T10:51:39;100789.53;;;7.08;100.00
19236;BME280;9752;54.270;12.470;2024-03-25T10:56:41;100796.00;;;7.61;100.00
19236;BME280;9752;54.270;12.470;2024-03-25T11:01:43;100790.19;;;7.17;100.00
19236;BME280;9752;54.270;12.470;2024-03-25T11:06:43;100784.97;;;7.88;100.00
19236;BME280;9752;54.270;12.470;2024-03-25T11:11:44;100770.88;;;7.35;100.00
19236;BME280;9752;54.270;12.470;2024-03-25T11:16:52;100771.75;;;7.71;100.00
19236;BME280;9752;54.270;12.470;2024-03-25T11:21:52;100784.75;;;8.21;100.00
19236;BME280;9752;54.270;12.470;2024-03-25T11:26:53;100778.41;;;7.93;100.00
19236;BME280;9752;54.270;12.470;2024-03-25T11:32:01;100774.16;;;7.93;100.00
19236;BME280;9752;54.270;12.470;2024-03-25T11:37:04;100775.06;;;8.19;100.00
19236;BME280;9752;54.270;12.470;2024-03-25T11:42:05;100768.47;;;8.36;100.00
19236;BME280;9752;54.270;12.470;2024-03-25T11:47:07;100758.69;;;7.81;100.00
19236;BME280;9752;54.270;12.470;2024-03-25T11:52:08;100755.38;;;7.96;100.00
19236;BME280;9752;54.270;12.470;2024-03-25T11:57:09;100751.88;;;8.07;100.00
19236;BME280;9752;54.270;12.470;2024-03-25T12:02:11;100742.78;;;8.00;100.00
19236;BME280;9752;54.270;12.470;2024-03-25T12:07:13;100740.13;;;8.24;100.00
19236;BME280;9752;54.270;12.470;2024-03-25T12:12:14;100732.41;;;8.76;100.00
19236;BME280;9752;54.270;12.470;2024-03-25T12:17:16;100737.06;;;8.68;100.00
19236;BME280;9752;54.270;12.470;2024-03-25T12:22:18;100728.63;;;8.57;100.00
19236;BME280;9752;54.270;12.470;2024-03-25T12:27:19;100728.34;;;9.06;100.00
19236;BME280;9752;54.270;12.470;2024-03-25T12:32:21;100722.06;;;8.76;100.00
19236;BME280;9752;54.270;12.470;2024-03-25T12:37:22;100725.66;;;8.39;100.00
19236;BME280;9752;54.270;12.470;2024-03-25T12:42:22;100718.09;;;8.29;100.00
19236;BME280;9752;54.270;12.470;2024-03-25T12:47:25;100711.41;;;8.58;100.00
19236;BME280;9752;54.270;12.470;2024-03-25T12:52:25;100706.13;;;8.43;100.00
19236;BME280;9752;54.270;12.470;2024-03-25T12:57:26;100702.44;;;8.14;100.00
19236;BME280;9752;54.270;12.470;2024-03-25T13:02:28;100699.28;;;8.32;100.00
19236;BME280;9752;54.270;12.470;2024-03-25T13:07:29;100698.13;;;8.92;100.00
19236;BME280;9752;54.270;12.470;2024-03-25T13:12:29;100698.00;;;9.17;100.00
19236;BME280;9752;54.270;12.470;2024-03-25T13:17:31;100692.97;;;8.92;100.00
19236;BME280;9752;54.270;12.470;2024-03-25T13:22:32;100685.97;;;8.26;100.00
19236;BME280;9752;54.270;12.470;2024-03-25T13:27:33;100692.88;;;8.38;100.00
19236;BME280;9752;54.270;12.470;2024-03-25T13:32:35;100693.66;;;7.87;100.00
19236;BME280;9752;54.270;12.470;2024-03-25T13:37:35;100700.00;;;8.81;100.00
19236;BME280;9752;54.270;12.470;2024-03-25T13:42:36;100688.28;;;8.86;100.00
19236;BME280;9752;54.270;12.470;2024-03-25T13:47:38;100687.66;;;9.04;100.00
19236;BME280;9752;54.270;12.470;2024-03-25T13:52:39;100686.88;;;8.91;100.00
19236;BME280;9752;54.270;12.470;2024-03-25T13:57:39;100697.13;;;8.90;100.00
19236;BME280;9752;54.270;12.470;2024-03-25T14:02:41;100694.22;;;8.98;100.00
19236;BME280;9752;54.270;12.470;2024-03-25T14:07:42;100682.25;;;9.69;100.00
19236;BME280;9752;54.270;12.470;2024-03-25T14:12:43;100686.28;;;9.50;100.00
19236;BME280;9752;54.270;12.470;2024-03-25T14:17:45;100691.53;;;8.97;100.00
19236;BME280;9752;54.270;12.470;2024-03-25T14:22:46;100688.16;;;8.71;100.00
19236;BME280;9752;54.270;12.470;2024-03-25T14:27:46;100690.06;;;8.87;100.00
19236;BME280;9752;54.270;12.470;2024-03-25T14:32:48;100700.78;;;8.28;100.00
19236;BME280;9752;54.270;12.470;2024-03-25T14:37:49;100694.63;;;8.39;100.00
19236;BME280;9752;54.270;12.470;2024-03-25T14:42:50;100694.84;;;9.08;100.00
19236;BME280;9752;54.270;12.470;2024-03-25T14:47:52;100688.06;;;8.70;100.00
19236;BME280;9752;54.270;12.470;2024-03-25T14:52:52;100698.34;;;7.93;100.00
19236;BME280;9752;54.270;12.470;2024-03-25T14:57:53;100694.22;;;8.72;100.00
19236;BME280;9752;54.270;12.470;2024-03-25T15:02:55;100703.63;;;8.45;100.00
19236;BME280;9752;54.270;12.470;2024-03-25T15:07:56;100694.94;;;8.96;100.00
19236;BME280;9752;54.270;12.470;2024-03-25T15:12:56;100705.06;;;8.28;100.00
19236;BME280;9752;54.270;12.470;2024-03-25T15:17:58;100692.13;;;8.28;100.00
19236;BME280;9752;54.270;12.470;2024-03-25T15:22:59;100696.81;;;7.83;100.00
19236;BME280;9752;54.270;12.470;2024-03-25T15:28:00;100703.06;;;7.61;100.00
19236;BME280;9752;54.270;12.470;2024-03-25T15:33:02;100693.50;;;7.72;100.00
19236;BME280;9752;54.270;12.470;2024-03-25T15:38:03;100686.56;;;8.21;100.00
19236;BME280;9752;54.270;12.470;2024-03-25T15:43:03;100676.41;;;9.71;100.00
19236;BME280;9752;54.270;12.470;2024-03-25T15:48:06;100681.47;;;9.28;100.00
19236;BME280;9752;54.270;12.470;2024-03-25T15:53:07;100686.41;;;9.38;100.00
19236;BME280;9752;54.270;12.470;2024-03-25T15:58:08;100678.13;;;10.88;100.00
19236;BME280;9752;54.270;12.470;2024-03-25T16:03:10;100660.81;;;12.68;100.00
19236;BME280;9752;54.270;12.470;2024-03-25T16:08:10;100653.13;;;13.43;100.00
19236;BME280;9752;54.270;12.470;2024-03-25T16:13:11;100666.81;;;11.98;100.00
19236;BME280;9752;54.270;12.470;2024-03-25T16:18:13;100684.03;;;11.01;100.00
19236;BME280;9752;54.270;12.470;2024-03-25T16:23:14;100676.88;;;11.76;100.00
19236;BME280;9752;54.270;12.470;2024-03-25T16:28:14;100679.19;;;11.55;100.00
19236;BME280;9752;54.270;12.470;2024-03-25T16:33:17;100669.84;;;11.89;100.00
19236;BME280;9752;54.270;12.470;2024-03-25T16:38:18;100675.16;;;11.28;100.00
19236;BME280;9752;54.270;12.470;2024-03-25T16:43:18;100671.81;;;11.46;100.00
19236;BME280;9752;54.270;12.470;2024-03-25T16:48:20;100675.56;;;11.67;100.00
19236;BME280;9752;54.270;12.470;2024-03-25T16:53:21;100672.91;;;11.03;100.00
19236;BME280;9752;54.270;12.470;2024-03-25T16:58:22;100683.06;;;10.69;100.00
19236;BME280;9752;54.270;12.470;2024-03-25T17:03:24;100684.84;;;10.85;100.00
19236;BME280;9752;54.270;12.470;2024-03-25T17:08:25;100692.44;;;9.24;100.00
19236;BME280;9752;54.270;12.470;2024-03-25T17:13:26;100692.44;;;8.57;100.00
19236;BME280;9752;54.270;12.470;2024-03-25T17:18:28;100691.72;;;7.96;100.00
19236;BME280;9752;54.270;12.470;2024-03-25T17:23:28;100706.66;;;7.03;100.00
19236;BME280;9752;54.270;12.470;2024-03-25T17:28:29;100704.31;;;6.25;100.00
19236;BME280;9752;54.270;12.470;2024-03-25T17:33:32;100715.03;;;5.63;100.00
19236;BME280;9752;54.270;12.470;2024-03-25T17:38:32;100718.09;;;5.05;100.00
19236;BME280;9752;54.270;12.470;2024-03-25T17:43:33;100722.16;;;4.60;100.00
19236;BME280;9752;54.270;12.470;2024-03-25T17:48:35;100728.22;;;4.20;100.00
19236;BME280;9752;54.270;12.470;2024-03-25T17:53:36;100728.06;;;3.87;100.00
19236;BME280;9752;54.270;12.470;2024-03-25T17:58:36;100738.63;;;3.61;100.00
19236;BME280;9752;54.270;12.470;2024-03-25T18:03:39;100737.84;;;3.23;100.00
19236;BME280;9752;54.270;12.470;2024-03-25T18:08:39;100741.31;;;2.94;100.00
19236;BME280;9752;54.270;12.470;2024-03-25T18:13:40;100737.63;;;2.82;100.00
19236;BME280;9752;54.270;12.470;2024-03-25T18:18:42;100747.31;;;2.76;100.00
19236;BME280;9752;54.270;12.470;2024-03-25T18:23:42;100737.09;;;2.76;100.00
19236;BME280;9752;54.270;12.470;2024-03-25T18:28:43;100737.22;;;2.58;100.00
19236;BME280;9752;54.270;12.470;2024-03-25T18:33:45;100738.84;;;2.39;100.00
19236;BME280;9752;54.270;12.470;2024-03-25T18:38:46;100736.25;;;2.20;100.00
19236;BME280;9752;54.270;12.470;2024-03-25T18:43:47;100742.38;;;2.03;100.00
19236;BME280;9752;54.270;12.470;2024-03-25T18:48:49;100740.69;;;1.84;100.00
19236;BME280;9752;54.270;12.470;2024-03-25T18:53:49;100746.13;;;1.70;100.00
19236;BME280;9752;54.270;12.470;2024-03-25T18:58:50;100738.38;;;1.60;100.00
19236;BME280;9752;54.270;12.470;2024-03-25T19:03:52;100742.44;;;1.49;100.00
19236;BME280;9752;54.270;12.470;2024-03-25T19:08:53;100741.88;;;1.43;100.00
19236;BME280;9752;54.270;12.470;2024-03-25T19:13:53;100737.84;;;1.27;100.00
19236;BME280;9752;54.270;12.470;2024-03-25T19:18:55;100737.44;;;1.14;100.00
19236;BME280;9752;54.270;12.470;2024-03-25T19:23:56;100734.56;;;1.11;100.00
19236;BME280;9752;54.270;12.470;2024-03-25T19:28:57;100737.75;;;1.00;100.00
19236;BME280;9752;54.270;12.470;2024-03-25T19:33:59;100747.53;;;0.95;100.00
19236;BME280;9752;54.270;12.470;2024-03-25T19:39:00;100748.28;;;0.76;100.00
19236;BME280;9752;54.270;12.470;2024-03-25T19:44:00;100761.34;;;0.71;100.00
19236;BME280;9752;54.270;12.470;2024-03-25T19:49:02;100778.03;;;0.76;100.00
19236;BME280;9752;54.270;12.470;2024-03-25T19:54:03;100776.34;;;0.94;100.00
19236;BME280;9752;54.270;12.470;2024-03-25T19:59:04;100779.38;;;0.90;100.00
19236;BME280;9752;54.270;12.470;2024-03-25T20:04:06;100793.19;;;0.92;100.00
19236;BME280;9752;54.270;12.470;2024-03-25T20:09:07;100809.88;;;0.97;100.00
19236;BME280;9752;54.270;12.470;2024-03-25T20:14:07;100821.72;;;1.05;100.00
19236;BME280;9752;54.270;12.470;2024-03-25T20:19:10;100817.97;;;1.10;100.00
19236;BME280;9752;54.270;12.470;2024-03-25T20:24:10;100829.97;;;1.11;100.00
19236;BME280;9752;54.270;12.470;2024-03-25T20:29:11;100838.22;;;1.17;100.00
19236;BME280;9752;54.270;12.470;2024-03-25T20:34:13;100848.03;;;1.13;100.00
19236;BME280;9752;54.270;12.470;2024-03-25T20:39:14;100838.53;;;0.94;100.00
19236;BME280;9752;54.270;12.470;2024-03-25T20:44:14;100841.03;;;0.68;100.00
19236;BME280;9752;54.270;12.470;2024-03-25T20:49:16;100837.72;;;0.52;100.00
19236;BME280;9752;54.270;12.470;2024-03-25T20:54:17;100846.88;;;0.50;100.00
19236;BME280;9752;54.270;12.470;2024-03-25T20:59:18;100845.19;;;0.42;100.00
19236;BME280;9752;54.270;12.470;2024-03-25T21:04:20;100850.53;;;0.69;100.00
19236;BME280;9752;54.270;12.470;2024-03-25T21:09:20;100842.09;;;0.62;100.00
19236;BME280;9752;54.270;12.470;2024-03-25T21:14:21;100844.63;;;0.53;100.00
19236;BME280;9752;54.270;12.470;2024-03-25T21:19:23;100846.84;;;0.41;100.00
19236;BME280;9752;54.270;12.470;2024-03-25T21:24:24;100844.47;;;0.43;100.00
19236;BME280;9752;54.270;12.470;2024-03-25T21:29:24;100837.25;;;0.47;100.00
19236;BME280;9752;54.270;12.470;2024-03-25T21:34:26;100853.59;;;0.41;100.00
19236;BME280;9752;54.270;12.470;2024-03-25T21:39:27;100835.09;;;0.26;100.00
19236;BME280;9752;54.270;12.470;2024-03-25T21:44:28;100849.47;;;0.16;100.00
19236;BME280;9752;54.270;12.470;2024-03-25T21:49:30;100844.34;;;0.08;100.00
19236;BME280;9752;54.270;12.470;2024-03-25T21:54:30;100848.34;;;0.06;100.00
19236;BME280;9752;54.270;12.470;2024-03-25T21:59:31;100851.84;;;0.06;100.00
19236;BME280;9752;54.270;12.470;2024-03-25T22:04:33;100845.25;;;0.08;100.00
19236;BME280;9752;54.270;12.470;2024-03-25T22:09:34;100855.63;;;0.18;100.00
19236;BME280;9752;54.270;12.470;2024-03-25T22:14:34;100861.50;;;0.17;100.00
19236;BME280;9752;54.270;12.470;2024-03-25T22:19:36;100858.66;;;0.23;100.00
19236;BME280;9752;54.270;12.470;2024-03-25T22:24:37;100904.31;;;0.37;100.00
19236;BME280;9752;54.270;12.470;2024-03-25T22:29:38;100907.16;;;0.32;100.00
19236;BME280;9752;54.270;12.470;2024-03-25T22:34:40;100916.88;;;0.27;100.00
19236;BME280;9752;54.270;12.470;2024-03-25T22:39:41;100920.72;;;0.15;100.00
19236;BME280;9752;54.270;12.470;2024-03-25T22:44:42;100927.75;;;0.09;100.00
19236;BME280;9752;54.270;12.470;2024-03-25T22:49:44;100959.63;;;-0.04;100.00
19236;BME280;9752;54.270;12.470;2024-03-25T22:54:45;100966.06;;;-0.23;100.00
19236;BME280;9752;54.270;12.470;2024-03-25T22:59:46;100951.06;;;-0.45;100.00
19236;BME280;9752;54.270;12.470;2024-03-25T23:04:48;100962.34;;;-0.58;100.00
19236;BME280;9752;54.270;12.470;2024-03-25T23:09:48;100955.19;;;-0.54;100.00
19236;BME280;9752;54.270;12.470;2024-03-25T23:14:49;100962.09;;;-0.53;100.00
19236;BME280;9752;54.270;12.470;2024-03-25T23:19:51;100959.88;;;-0.66;100.00
19236;BME280;9752;54.270;12.470;2024-03-25T23:24:52;100962.25;;;-0.67;100.00
19236;BME280;9752;54.270;12.470;2024-03-25T23:29:52;100967.25;;;-0.76;100.00
19236;BME280;9752;54.270;12.470;2024-03-25T23:34:54;100977.88;;;-0.64;100.00
19236;BME280;9752;54.270;12.470;2024-03-25T23:39:55;100978.38;;;-0.60;100.00
19236;BME280;9752;54.270;12.470;2024-03-25T23:44:56;100990.94;;;-0.45;100.00
19236;BME280;9752;54.270;12.470;2024-03-25T23:49:58;100989.78;;;-0.56;100.00
19236;BME280;9752;54.270;12.470;2024-03-25T23:54:59;101011.91;;;-0.32;100.00
19236;BME280;9752;54.270;12.470;2024-03-25T23:59:59;101003.19;;;-0.34;100.00
